sensor_id;sensor_type;location;lat;lon;timestamp;P1;durP1;ratioP1;P2;durP2;ratioP2
29550;SDS011;16488;52.396;10.696;2022-10-15T00:00:33;13.05;;;8.40;;
29550;SDS011;16488;52.396;10.696;2022-10-15T00:02:59;10.18;;;8.10;;
29550;SDS011;16488;52.396;10.696;2022-10-15T00:05:24;15.03;;;9.03;;
29550;SDS011;16488;52.396;10.696;2022-10-15T00:07:50;12.25;;;8.30;;
29550;SDS011;16488;52.396;10.696;2022-10-15T00:10:16;13.80;;;8.23;;
29550;SDS011;16488;52.396;10.696;2022-10-15T00:12:42;15.70;;;8.23;;
29550;SDS011;16488;52.396;10.696;2022-10-15T00:15:08;13.80;;;9.02;;
29550;SDS011;16488;52.396;10.696;2022-10-15T00:17:34;12.23;;;8.35;;
29550;SDS011;16488;52.396;10.696;2022-10-15T00:20:01;15.75;;;8.57;;
29550;SDS011;16488;52.396;10.696;2022-10-15T00:22:31;12.15;;;8.18;;
29550;SDS011;16488;52.396;10.696;2022-10-15T00:24:57;12.83;;;9.00;;
29550;SDS011;16488;52.396;10.696;2022-10-15T00:27:22;14.33;;;8.87;;
29550;SDS011;16488;52.396;10.696;2022-10-15T00:29:48;16.48;;;8.88;;
29550;SDS011;16488;52.396;10.696;2022-10-15T00:32:14;18.73;;;9.57;;
29550;SDS011;16488;52.396;10.696;2022-10-15T00:34:39;14.68;;;9.68;;
29550;SDS011;16488;52.396;10.696;2022-10-15T00:37:05;11.23;;;8.32;;
29550;SDS011;16488;52.396;10.696;2022-10-15T00:39:32;13.75;;;8.73;;
29550;SDS011;16488;52.396;10.696;2022-10-15T00:41:57;16.15;;;8.93;;
29550;SDS011;16488;52.396;10.696;2022-10-15T00:46:50;12.93;;;8.83;;
29550;SDS011;16488;52.396;10.696;2022-10-15T00:49:19;21.00;;;9.20;;
29550;SDS011;16488;52.396;10.696;2022-10-15T00:51:53;13.75;;;9.27;;
29550;SDS011;16488;52.396;10.696;2022-10-15T00:54:26;12.18;;;8.20;;
29550;SDS011;16488;52.396;10.696;2022-10-15T00:56:55;13.40;;;8.85;;
29550;SDS011;16488;52.396;10.696;2022-10-15T00:59:21;15.23;;;9.18;;
29550;SDS011;16488;52.396;10.696;2022-10-15T01:01:49;13.98;;;8.90;;
29550;SDS011;16488;52.396;10.696;2022-10-15T01:04:15;12.75;;;9.27;;
29550;SDS011;16488;52.396;10.696;2022-10-15T01:06:42;17.33;;;9.68;;
29550;SDS011;16488;52.396;10.696;2022-10-15T01:09:09;17.70;;;8.73;;
29550;SDS011;16488;52.396;10.696;2022-10-15T01:11:48;15.90;;;8.85;;
29550;SDS011;16488;52.396;10.696;2022-10-15T01:17:09;14.00;;;8.85;;
29550;SDS011;16488;52.396;10.696;2022-10-15T01:24:58;16.33;;;9.25;;
29550;SDS011;16488;52.396;10.696;2022-10-15T01:27:42;13.05;;;9.48;;
29550;SDS011;16488;52.396;10.696;2022-10-15T01:35:45;18.00;;;10.82;;
29550;SDS011;16488;52.396;10.696;2022-10-15T01:43:47;15.23;;;9.63;;
29550;SDS011;16488;52.396;10.696;2022-10-15T01:46:23;15.55;;;10.15;;
29550;SDS011;16488;52.396;10.696;2022-10-15T01:48:56;15.18;;;10.60;;
29550;SDS011;16488;52.396;10.696;2022-10-15T01:51:23;17.63;;;10.93;;
29550;SDS011;16488;52.396;10.696;2022-10-15T01:53:50;13.60;;;9.68;;
29550;SDS011;16488;52.396;10.696;2022-10-15T01:56:18;14.10;;;10.40;;
29550;SDS011;16488;52.396;10.696;2022-10-15T01:58:47;17.35;;;10.80;;
29550;SDS011;16488;52.396;10.696;2022-10-15T02:01:15;12.50;;;10.00;;
29550;SDS011;16488;52.396;10.696;2022-10-15T02:03:45;24.60;;;10.07;;
29550;SDS011;16488;52.396;10.696;2022-10-15T02:06:22;14.85;;;10.50;;
29550;SDS011;16488;52.396;10.696;2022-10-15T02:11:40;16.08;;;9.95;;
29550;SDS011;16488;52.396;10.696;2022-10-15T02:15:15;17.10;;;10.27;;
29550;SDS011;16488;52.396;10.696;2022-10-15T02:17:13;18.60;;;11.27;;
29550;SDS011;16488;52.396;10.696;2022-10-15T02:19:51;13.50;;;9.98;;
29550;SDS011;16488;52.396;10.696;2022-10-15T02:22:26;15.20;;;10.40;;
29550;SDS011;16488;52.396;10.696;2022-10-15T02:25:02;12.85;;;9.95;;
29550;SDS011;16488;52.396;10.696;2022-10-15T02:27:32;16.13;;;10.13;;
29550;SDS011;16488;52.396;10.696;2022-10-15T02:30:01;14.18;;;10.23;;
29550;SDS011;16488;52.396;10.696;2022-10-15T02:32:28;27.00;;;11.18;;
29550;SDS011;16488;52.396;10.696;2022-10-15T02:34:56;21.67;;;10.32;;
29550;SDS011;16488;52.396;10.696;2022-10-15T02:37:24;15.95;;;9.60;;
29550;SDS011;16488;52.396;10.696;2022-10-15T02:39:52;14.80;;;9.90;;
29550;SDS011;16488;52.396;10.696;2022-10-15T02:42:18;20.60;;;10.33;;
29550;SDS011;16488;52.396;10.696;2022-10-15T02:44:44;17.15;;;10.10;;
29550;SDS011;16488;52.396;10.696;2022-10-15T02:47:10;13.80;;;10.20;;
29550;SDS011;16488;52.396;10.696;2022-10-15T02:49:36;11.13;;;8.55;;
29550;SDS011;16488;52.396;10.696;2022-10-15T02:52:02;12.30;;;9.50;;
29550;SDS011;16488;52.396;10.696;2022-10-15T02:54:28;24.02;;;11.07;;
29550;SDS011;16488;52.396;10.696;2022-10-15T02:56:53;17.50;;;11.03;;
29550;SDS011;16488;52.396;10.696;2022-10-15T02:59:19;16.55;;;10.75;;
29550;SDS011;16488;52.396;10.696;2022-10-15T03:01:45;17.77;;;11.47;;
29550;SDS011;16488;52.396;10.696;2022-10-15T03:04:10;17.40;;;11.30;;
29550;SDS011;16488;52.396;10.696;2022-10-15T03:06:36;17.60;;;11.02;;
29550;SDS011;16488;52.396;10.696;2022-10-15T03:09:02;16.27;;;11.00;;
29550;SDS011;16488;52.396;10.696;2022-10-15T03:11:28;17.33;;;11.35;;
29550;SDS011;16488;52.396;10.696;2022-10-15T03:13:54;17.97;;;11.60;;
29550;SDS011;16488;52.396;10.696;2022-10-15T03:16:19;15.77;;;10.45;;
29550;SDS011;16488;52.396;10.696;2022-10-15T03:18:45;16.15;;;11.85;;
29550;SDS011;16488;52.396;10.696;2022-10-15T03:21:11;18.27;;;12.10;;
29550;SDS011;16488;52.396;10.696;2022-10-15T03:23:36;19.27;;;10.95;;
29550;SDS011;16488;52.396;10.696;2022-10-15T03:26:02;20.10;;;12.93;;
29550;SDS011;16488;52.396;10.696;2022-10-15T03:28:28;19.37;;;12.30;;
29550;SDS011;16488;52.396;10.696;2022-10-15T03:30:53;21.87;;;12.33;;
29550;SDS011;16488;52.396;10.696;2022-10-15T03:33:19;17.80;;;12.60;;
29550;SDS011;16488;52.396;10.696;2022-10-15T03:35:45;18.30;;;12.73;;
29550;SDS011;16488;52.396;10.696;2022-10-15T03:38:10;16.60;;;11.00;;
29550;SDS011;16488;52.396;10.696;2022-10-15T03:40:36;20.38;;;11.63;;
29550;SDS011;16488;52.396;10.696;2022-10-15T03:43:02;18.15;;;11.40;;
29550;SDS011;16488;52.396;10.696;2022-10-15T03:45:27;25.30;;;14.60;;
29550;SDS011;16488;52.396;10.696;2022-10-15T03:47:53;21.00;;;12.27;;
29550;SDS011;16488;52.396;10.696;2022-10-15T03:50:18;16.73;;;10.57;;
29550;SDS011;16488;52.396;10.696;2022-10-15T03:52:44;15.43;;;10.30;;
29550;SDS011;16488;52.396;10.696;2022-10-15T03:55:10;22.20;;;12.18;;
29550;SDS011;16488;52.396;10.696;2022-10-15T03:57:36;16.83;;;11.73;;
29550;SDS011;16488;52.396;10.696;2022-10-15T04:00:03;16.92;;;11.65;;
29550;SDS011;16488;52.396;10.696;2022-10-15T04:02:30;17.30;;;10.35;;
29550;SDS011;16488;52.396;10.696;2022-10-15T04:04:56;19.03;;;11.80;;
29550;SDS011;16488;52.396;10.696;2022-10-15T04:07:22;19.60;;;13.15;;
29550;SDS011;16488;52.396;10.696;2022-10-15T04:09:47;18.00;;;12.25;;
29550;SDS011;16488;52.396;10.696;2022-10-15T04:12:13;18.03;;;11.93;;
29550;SDS011;16488;52.396;10.696;2022-10-15T04:14:39;16.35;;;10.52;;
29550;SDS011;16488;52.396;10.696;2022-10-15T04:17:05;23.97;;;10.47;;
29550;SDS011;16488;52.396;10.696;2022-10-15T04:19:31;21.85;;;11.07;;
29550;SDS011;16488;52.396;10.696;2022-10-15T04:21:56;21.15;;;11.30;;
29550;SDS011;16488;52.396;10.696;2022-10-15T04:24:22;15.05;;;10.68;;
29550;SDS011;16488;52.396;10.696;2022-10-15T04:26:48;17.65;;;11.60;;
29550;SDS011;16488;52.396;10.696;2022-10-15T04:29:13;18.33;;;11.93;;
29550;SDS011;16488;52.396;10.696;2022-10-15T04:31:39;19.13;;;13.25;;
29550;SDS011;16488;52.396;10.696;2022-10-15T04:36:31;21.52;;;13.13;;
29550;SDS011;16488;52.396;10.696;2022-10-15T04:38:57;20.83;;;13.07;;
29550;SDS011;16488;52.396;10.696;2022-10-15T04:41:23;20.23;;;13.20;;
29550;SDS011;16488;52.396;10.696;2022-10-15T04:43:48;20.37;;;13.53;;
29550;SDS011;16488;52.396;10.696;2022-10-15T04:46:14;18.80;;;11.50;;
29550;SDS011;16488;52.396;10.696;2022-10-15T04:48:39;20.35;;;12.30;;
29550;SDS011;16488;52.396;10.696;2022-10-15T04:51:06;15.93;;;10.90;;
29550;SDS011;16488;52.396;10.696;2022-10-15T04:53:33;18.55;;;11.30;;
29550;SDS011;16488;52.396;10.696;2022-10-15T04:56:01;16.35;;;11.27;;
29550;SDS011;16488;52.396;10.696;2022-10-15T04:58:28;15.98;;;10.32;;
29550;SDS011;16488;52.396;10.696;2022-10-15T05:00:57;15.90;;;10.82;;
29550;SDS011;16488;52.396;10.696;2022-10-15T05:03:25;18.60;;;10.60;;
29550;SDS011;16488;52.396;10.696;2022-10-15T05:05:50;13.07;;;9.77;;
29550;SDS011;16488;52.396;10.696;2022-10-15T05:08:16;19.47;;;9.33;;
29550;SDS011;16488;52.396;10.696;2022-10-15T05:10:41;14.13;;;10.40;;
29550;SDS011;16488;52.396;10.696;2022-10-15T05:13:07;12.93;;;9.67;;
29550;SDS011;16488;52.396;10.696;2022-10-15T05:15:32;14.47;;;9.70;;
29550;SDS011;16488;52.396;10.696;2022-10-15T05:17:58;11.23;;;9.00;;
29550;SDS011;16488;52.396;10.696;2022-10-15T05:20:23;26.23;;;12.53;;
29550;SDS011;16488;52.396;10.696;2022-10-15T05:22:49;15.10;;;10.40;;
29550;SDS011;16488;52.396;10.696;2022-10-15T05:25:14;15.27;;;10.47;;
29550;SDS011;16488;52.396;10.696;2022-10-15T05:27:40;19.53;;;10.80;;
29550;SDS011;16488;52.396;10.696;2022-10-15T05:30:05;17.03;;;10.93;;
29550;SDS011;16488;52.396;10.696;2022-10-15T05:32:31;16.20;;;10.10;;
29550;SDS011;16488;52.396;10.696;2022-10-15T05:34:57;14.27;;;9.77;;
29550;SDS011;16488;52.396;10.696;2022-10-15T05:37:22;17.70;;;10.37;;
29550;SDS011;16488;52.396;10.696;2022-10-15T05:39:48;15.63;;;10.05;;
29550;SDS011;16488;52.396;10.696;2022-10-15T05:42:13;16.80;;;9.60;;
29550;SDS011;16488;52.396;10.696;2022-10-15T05:44:39;21.20;;;10.57;;
29550;SDS011;16488;52.396;10.696;2022-10-15T05:47:04;18.33;;;10.73;;
29550;SDS011;16488;52.396;10.696;2022-10-15T05:49:30;17.85;;;10.10;;
29550;SDS011;16488;52.396;10.696;2022-10-15T05:51:56;17.50;;;11.87;;
29550;SDS011;16488;52.396;10.696;2022-10-15T05:54:21;18.77;;;11.93;;
29550;SDS011;16488;52.396;10.696;2022-10-15T05:56:47;18.17;;;11.57;;
29550;SDS011;16488;52.396;10.696;2022-10-15T05:59:12;17.10;;;10.77;;
29550;SDS011;16488;52.396;10.696;2022-10-15T06:01:38;20.60;;;10.67;;
29550;SDS011;16488;52.396;10.696;2022-10-15T06:04:03;19.40;;;10.90;;
29550;SDS011;16488;52.396;10.696;2022-10-15T06:06:29;18.07;;;10.63;;
29550;SDS011;16488;52.396;10.696;2022-10-15T06:08:54;19.13;;;10.82;;
29550;SDS011;16488;52.396;10.696;2022-10-15T06:11:22;18.38;;;10.23;;
29550;SDS011;16488;52.396;10.696;2022-10-15T06:13:48;15.07;;;9.53;;
29550;SDS011;16488;52.396;10.696;2022-10-15T06:16:14;13.87;;;9.30;;
29550;SDS011;16488;52.396;10.696;2022-10-15T06:18:41;16.45;;;10.80;;
29550;SDS011;16488;52.396;10.696;2022-10-15T06:21:06;15.53;;;10.27;;
29550;SDS011;16488;52.396;10.696;2022-10-15T06:23:34;16.00;;;10.45;;
29550;SDS011;16488;52.396;10.696;2022-10-15T06:26:00;13.63;;;9.68;;
29550;SDS011;16488;52.396;10.696;2022-10-15T06:28:28;18.77;;;10.88;;
29550;SDS011;16488;52.396;10.696;2022-10-15T06:30:56;15.07;;;9.80;;
29550;SDS011;16488;52.396;10.696;2022-10-15T06:33:22;17.90;;;11.50;;
29550;SDS011;16488;52.396;10.696;2022-10-15T06:35:48;30.10;;;10.27;;
29550;SDS011;16488;52.396;10.696;2022-10-15T06:38:13;22.48;;;10.82;;
29550;SDS011;16488;52.396;10.696;2022-10-15T06:40:39;13.55;;;9.10;;
29550;SDS011;16488;52.396;10.696;2022-10-15T06:43:05;16.47;;;10.00;;
29550;SDS011;16488;52.396;10.696;2022-10-15T06:45:32;20.90;;;10.85;;
29550;SDS011;16488;52.396;10.696;2022-10-15T06:48:00;18.65;;;10.13;;
29550;SDS011;16488;52.396;10.696;2022-10-15T06:50:27;19.92;;;11.30;;
29550;SDS011;16488;52.396;10.696;2022-10-15T06:52:53;17.73;;;10.57;;
29550;SDS011;16488;52.396;10.696;2022-10-15T06:55:18;26.90;;;12.40;;
29550;SDS011;16488;52.396;10.696;2022-10-15T06:57:44;23.80;;;12.30;;
29550;SDS011;16488;52.396;10.696;2022-10-15T07:00:09;20.93;;;11.50;;
29550;SDS011;16488;52.396;10.696;2022-10-15T07:02:36;21.65;;;13.23;;
29550;SDS011;16488;52.396;10.696;2022-10-15T07:05:01;31.67;;;13.87;;
29550;SDS011;16488;52.396;10.696;2022-10-15T07:07:27;26.43;;;13.30;;
29550;SDS011;16488;52.396;10.696;2022-10-15T07:09:52;24.58;;;12.70;;
29550;SDS011;16488;52.396;10.696;2022-10-15T07:12:19;25.10;;;13.15;;
29550;SDS011;16488;52.396;10.696;2022-10-15T07:14:46;27.17;;;12.52;;
29550;SDS011;16488;52.396;10.696;2022-10-15T07:17:13;23.25;;;12.88;;
29550;SDS011;16488;52.396;10.696;2022-10-15T07:19:39;29.15;;;15.38;;
29550;SDS011;16488;52.396;10.696;2022-10-15T07:22:04;25.83;;;14.07;;
29550;SDS011;16488;52.396;10.696;2022-10-15T07:24:30;19.47;;;12.30;;
29550;SDS011;16488;52.396;10.696;2022-10-15T07:26:56;28.70;;;13.60;;
29550;SDS011;16488;52.396;10.696;2022-10-15T07:29:21;22.25;;;12.48;;
29550;SDS011;16488;52.396;10.696;2022-10-15T07:31:47;25.70;;;12.27;;
29550;SDS011;16488;52.396;10.696;2022-10-15T07:34:12;23.80;;;13.73;;
29550;SDS011;16488;52.396;10.696;2022-10-15T07:36:38;24.48;;;15.30;;
29550;SDS011;16488;52.396;10.696;2022-10-15T07:39:04;33.88;;;17.83;;
29550;SDS011;16488;52.396;10.696;2022-10-15T07:41:29;37.35;;;21.38;;
29550;SDS011;16488;52.396;10.696;2022-10-15T07:43:55;48.13;;;25.75;;
29550;SDS011;16488;52.396;10.696;2022-10-15T07:46:21;45.15;;;24.55;;
29550;SDS011;16488;52.396;10.696;2022-10-15T07:48:47;47.55;;;23.77;;
29550;SDS011;16488;52.396;10.696;2022-10-15T07:51:12;45.70;;;24.43;;
29550;SDS011;16488;52.396;10.696;2022-10-15T07:53:38;50.40;;;24.67;;
29550;SDS011;16488;52.396;10.696;2022-10-15T07:56:05;48.40;;;25.98;;
29550;SDS011;16488;52.396;10.696;2022-10-15T07:58:32;44.10;;;25.42;;
29550;SDS011;16488;52.396;10.696;2022-10-15T08:01:01;60.42;;;32.28;;
29550;SDS011;16488;52.396;10.696;2022-10-15T08:03:28;61.25;;;32.92;;
29550;SDS011;16488;52.396;10.696;2022-10-15T08:05:54;55.65;;;30.50;;
29550;SDS011;16488;52.396;10.696;2022-10-15T08:08:20;53.30;;;30.58;;
29550;SDS011;16488;52.396;10.696;2022-10-15T08:10:46;53.65;;;31.80;;
29550;SDS011;16488;52.396;10.696;2022-10-15T08:13:13;58.58;;;32.13;;
29550;SDS011;16488;52.396;10.696;2022-10-15T08:15:39;66.38;;;35.05;;
29550;SDS011;16488;52.396;10.696;2022-10-15T08:18:05;66.22;;;36.58;;
29550;SDS011;16488;52.396;10.696;2022-10-15T08:20:31;59.42;;;32.25;;
29550;SDS011;16488;52.396;10.696;2022-10-15T08:22:57;66.00;;;34.57;;
29550;SDS011;16488;52.396;10.696;2022-10-15T08:25:23;59.00;;;32.03;;
29550;SDS011;16488;52.396;10.696;2022-10-15T08:27:48;52.33;;;30.58;;
29550;SDS011;16488;52.396;10.696;2022-10-15T08:30:14;55.67;;;31.37;;
29550;SDS011;16488;52.396;10.696;2022-10-15T08:32:39;56.67;;;31.23;;
29550;SDS011;16488;52.396;10.696;2022-10-15T08:35:05;63.10;;;30.87;;
29550;SDS011;16488;52.396;10.696;2022-10-15T08:37:31;55.95;;;31.05;;
29550;SDS011;16488;52.396;10.696;2022-10-15T08:39:56;50.47;;;28.83;;
29550;SDS011;16488;52.396;10.696;2022-10-15T08:42:27;53.37;;;29.97;;
29550;SDS011;16488;52.396;10.696;2022-10-15T08:45:16;51.20;;;29.17;;
29550;SDS011;16488;52.396;10.696;2022-10-15T08:47:47;52.97;;;30.40;;
29550;SDS011;16488;52.396;10.696;2022-10-15T08:50:17;54.35;;;30.98;;
29550;SDS011;16488;52.396;10.696;2022-10-15T08:52:52;50.40;;;30.13;;
29550;SDS011;16488;52.396;10.696;2022-10-15T08:55:20;43.50;;;27.30;;
29550;SDS011;16488;52.396;10.696;2022-10-15T09:00:40;54.80;;;29.35;;
29550;SDS011;16488;52.396;10.696;2022-10-15T09:11:22;40.53;;;24.50;;
29550;SDS011;16488;52.396;10.696;2022-10-15T09:14:14;37.77;;;22.80;;
29550;SDS011;16488;52.396;10.696;2022-10-15T09:16:47;46.88;;;28.65;;
29550;SDS011;16488;52.396;10.696;2022-10-15T09:19:15;45.85;;;27.30;;
29550;SDS011;16488;52.396;10.696;2022-10-15T09:21:49;45.03;;;27.50;;
29550;SDS011;16488;52.396;10.696;2022-10-15T09:24:20;32.67;;;22.25;;
29550;SDS011;16488;52.396;10.696;2022-10-15T09:29:18;48.55;;;27.17;;
29550;SDS011;16488;52.396;10.696;2022-10-15T09:32:02;47.47;;;28.27;;
29550;SDS011;16488;52.396;10.696;2022-10-15T09:37:30;43.53;;;26.20;;
29550;SDS011;16488;52.396;10.696;2022-10-15T09:42:56;34.38;;;22.92;;
29550;SDS011;16488;52.396;10.696;2022-10-15T09:45:24;36.53;;;22.45;;
29550;SDS011;16488;52.396;10.696;2022-10-15T09:47:49;33.60;;;21.33;;
29550;SDS011;16488;52.396;10.696;2022-10-15T09:50:16;34.72;;;21.05;;
29550;SDS011;16488;52.396;10.696;2022-10-15T09:55:32;27.33;;;19.70;;
29550;SDS011;16488;52.396;10.696;2022-10-15T09:58:14;31.75;;;20.38;;
29550;SDS011;16488;52.396;10.696;2022-10-15T10:01:00;32.75;;;21.15;;
29550;SDS011;16488;52.396;10.696;2022-10-15T10:03:35;26.80;;;18.98;;
29550;SDS011;16488;52.396;10.696;2022-10-15T10:06:11;30.35;;;19.73;;
29550;SDS011;16488;52.396;10.696;2022-10-15T10:08:52;29.20;;;20.45;;
29550;SDS011;16488;52.396;10.696;2022-10-15T10:11:23;50.40;;;20.23;;
29550;SDS011;16488;52.396;10.696;2022-10-15T10:13:52;27.55;;;19.30;;
29550;SDS011;16488;52.396;10.696;2022-10-15T10:16:20;27.13;;;19.48;;
29550;SDS011;16488;52.396;10.696;2022-10-15T10:19:03;27.80;;;18.02;;
29550;SDS011;16488;52.396;10.696;2022-10-15T10:21:36;26.08;;;17.17;;
29550;SDS011;16488;52.396;10.696;2022-10-15T10:24:19;27.08;;;16.33;;
29550;SDS011;16488;52.396;10.696;2022-10-15T10:26:52;23.58;;;17.17;;
29550;SDS011;16488;52.396;10.696;2022-10-15T10:29:19;23.52;;;16.05;;
29550;SDS011;16488;52.396;10.696;2022-10-15T10:31:46;25.25;;;17.40;;
29550;SDS011;16488;52.396;10.696;2022-10-15T10:34:16;24.85;;;17.52;;
29550;SDS011;16488;52.396;10.696;2022-10-15T10:36:47;29.05;;;17.13;;
29550;SDS011;16488;52.396;10.696;2022-10-15T10:39:25;27.05;;;17.73;;
29550;SDS011;16488;52.396;10.696;2022-10-15T10:44:31;24.48;;;17.27;;
29550;SDS011;16488;52.396;10.696;2022-10-15T10:49:53;27.35;;;17.73;;
29550;SDS011;16488;52.396;10.696;2022-10-15T10:54:59;27.70;;;19.08;;
29550;SDS011;16488;52.396;10.696;2022-10-15T11:00:17;26.27;;;17.92;;
29550;SDS011;16488;52.396;10.696;2022-10-15T11:03:02;26.65;;;17.23;;
29550;SDS011;16488;52.396;10.696;2022-10-15T11:05:29;27.52;;;17.85;;
29550;SDS011;16488;52.396;10.696;2022-10-15T11:16:02;22.05;;;15.55;;
29550;SDS011;16488;52.396;10.696;2022-10-15T11:19:17;20.30;;;13.43;;
29550;SDS011;16488;52.396;10.696;2022-10-15T11:24:34;19.65;;;13.07;;
29550;SDS011;16488;52.396;10.696;2022-10-15T11:27:23;19.20;;;13.05;;
29550;SDS011;16488;52.396;10.696;2022-10-15T11:29:59;19.00;;;12.88;;
29550;SDS011;16488;52.396;10.696;2022-10-15T11:32:50;16.08;;;12.35;;
29550;SDS011;16488;52.396;10.696;2022-10-15T11:35:34;16.63;;;11.38;;
29550;SDS011;16488;52.396;10.696;2022-10-15T11:38:19;16.52;;;12.60;;
29550;SDS011;16488;52.396;10.696;2022-10-15T11:54:38;15.45;;;9.57;;
29550;SDS011;16488;52.396;10.696;2022-10-15T11:57:10;10.25;;;8.07;;
29550;SDS011;16488;52.396;10.696;2022-10-15T12:02:29;16.35;;;10.15;;
29550;SDS011;16488;52.396;10.696;2022-10-15T12:05:05;12.52;;;7.90;;
29550;SDS011;16488;52.396;10.696;2022-10-15T12:07:33;13.15;;;8.75;;
29550;SDS011;16488;52.396;10.696;2022-10-15T12:10:49;9.50;;;7.68;;
29550;SDS011;16488;52.396;10.696;2022-10-15T12:13:05;11.52;;;7.32;;
29550;SDS011;16488;52.396;10.696;2022-10-15T12:18:48;8.27;;;5.70;;
29550;SDS011;16488;52.396;10.696;2022-10-15T12:29:50;4.75;;;3.95;;
29550;SDS011;16488;52.396;10.696;2022-10-15T12:32:39;7.50;;;4.65;;
29550;SDS011;16488;52.396;10.696;2022-10-15T12:37:38;7.53;;;4.03;;
29550;SDS011;16488;52.396;10.696;2022-10-15T12:40:05;5.70;;;3.78;;
29550;SDS011;16488;52.396;10.696;2022-10-15T12:43:02;3.90;;;2.88;;
29550;SDS011;16488;52.396;10.696;2022-10-15T12:45:37;4.45;;;2.63;;
29550;SDS011;16488;52.396;10.696;2022-10-15T12:50:40;4.95;;;2.15;;
29550;SDS011;16488;52.396;10.696;2022-10-15T12:58:35;2.00;;;1.45;;
29550;SDS011;16488;52.396;10.696;2022-10-15T13:11:31;2.33;;;1.80;;
29550;SDS011;16488;52.396;10.696;2022-10-15T13:16:50;2.83;;;1.95;;
29550;SDS011;16488;52.396;10.696;2022-10-15T13:19:16;7.28;;;2.72;;
29550;SDS011;16488;52.396;10.696;2022-10-15T13:22:02;2.83;;;2.25;;
29550;SDS011;16488;52.396;10.696;2022-10-15T13:24:37;2.90;;;1.92;;
29550;SDS011;16488;52.396;10.696;2022-10-15T13:27:12;4.57;;;2.35;;
29550;SDS011;16488;52.396;10.696;2022-10-15T13:29:39;2.88;;;1.70;;
29550;SDS011;16488;52.396;10.696;2022-10-15T13:32:30;2.78;;;2.03;;
29550;SDS011;16488;52.396;10.696;2022-10-15T13:34:58;2.13;;;1.67;;
29550;SDS011;16488;52.396;10.696;2022-10-15T13:37:33;2.95;;;2.33;;
29550;SDS011;16488;52.396;10.696;2022-10-15T13:40:00;2.20;;;1.90;;
29550;SDS011;16488;52.396;10.696;2022-10-15T13:42:28;2.63;;;2.42;;
29550;SDS011;16488;52.396;10.696;2022-10-15T13:45:14;2.78;;;2.38;;
29550;SDS011;16488;52.396;10.696;2022-10-15T13:47:46;3.45;;;2.40;;
29550;SDS011;16488;52.396;10.696;2022-10-15T13:50:23;6.05;;;2.45;;
29550;SDS011;16488;52.396;10.696;2022-10-15T13:53:16;3.35;;;2.58;;
29550;SDS011;16488;52.396;10.696;2022-10-15T13:55:55;3.53;;;2.33;;
29550;SDS011;16488;52.396;10.696;2022-10-15T13:58:34;4.07;;;2.97;;
29550;SDS011;16488;52.396;10.696;2022-10-15T14:01:09;3.60;;;2.50;;
29550;SDS011;16488;52.396;10.696;2022-10-15T14:04:17;3.67;;;2.42;;
29550;SDS011;16488;52.396;10.696;2022-10-15T14:07:02;4.95;;;3.10;;
29550;SDS011;16488;52.396;10.696;2022-10-15T14:09:42;4.60;;;3.42;;
29550;SDS011;16488;52.396;10.696;2022-10-15T14:12:10;3.72;;;2.95;;
29550;SDS011;16488;52.396;10.696;2022-10-15T14:14:37;9.35;;;2.92;;
29550;SDS011;16488;52.396;10.696;2022-10-15T14:19:50;3.65;;;2.90;;
29550;SDS011;16488;52.396;10.696;2022-10-15T14:22:19;4.70;;;2.45;;
29550;SDS011;16488;52.396;10.696;2022-10-15T14:24:49;3.75;;;2.83;;
29550;SDS011;16488;52.396;10.696;2022-10-15T14:27:17;4.72;;;2.92;;
29550;SDS011;16488;52.396;10.696;2022-10-15T14:29:46;3.67;;;2.92;;
29550;SDS011;16488;52.396;10.696;2022-10-15T14:34:59;3.38;;;2.60;;
29550;SDS011;16488;52.396;10.696;2022-10-15T14:42:48;2.78;;;2.22;;
29550;SDS011;16488;52.396;10.696;2022-10-15T14:45:39;2.83;;;1.98;;
29550;SDS011;16488;52.396;10.696;2022-10-15T14:48:20;6.80;;;2.50;;
29550;SDS011;16488;52.396;10.696;2022-10-15T14:50:48;3.38;;;2.20;;
29550;SDS011;16488;52.396;10.696;2022-10-15T14:53:20;1.90;;;1.70;;
29550;SDS011;16488;52.396;10.696;2022-10-15T14:55:51;2.55;;;1.80;;
29550;SDS011;16488;52.396;10.696;2022-10-15T14:58:20;4.07;;;1.60;;
29550;SDS011;16488;52.396;10.696;2022-10-15T15:00:48;3.35;;;2.05;;
29550;SDS011;16488;52.396;10.696;2022-10-15T15:03:25;3.63;;;1.58;;
29550;SDS011;16488;52.396;10.696;2022-10-15T15:05:53;9.43;;;2.83;;
29550;SDS011;16488;52.396;10.696;2022-10-15T15:08:20;2.08;;;1.88;;
29550;SDS011;16488;52.396;10.696;2022-10-15T15:10:47;3.05;;;1.77;;
29550;SDS011;16488;52.396;10.696;2022-10-15T15:13:16;2.10;;;1.73;;
29550;SDS011;16488;52.396;10.696;2022-10-15T15:15:47;3.63;;;1.60;;
29550;SDS011;16488;52.396;10.696;2022-10-15T15:18:13;2.45;;;1.45;;
29550;SDS011;16488;52.396;10.696;2022-10-15T15:20:40;2.83;;;1.45;;
29550;SDS011;16488;52.396;10.696;2022-10-15T15:23:08;1.25;;;1.10;;
29550;SDS011;16488;52.396;10.696;2022-10-15T15:25:39;3.67;;;1.30;;
29550;SDS011;16488;52.396;10.696;2022-10-15T15:28:07;1.15;;;1.05;;
29550;SDS011;16488;52.396;10.696;2022-10-15T15:30:41;1.50;;;0.93;;
29550;SDS011;16488;52.396;10.696;2022-10-15T15:33:12;1.45;;;0.90;;
29550;SDS011;16488;52.396;10.696;2022-10-15T15:35:43;2.63;;;0.82;;
29550;SDS011;16488;52.396;10.696;2022-10-15T15:38:19;0.90;;;0.80;;
29550;SDS011;16488;52.396;10.696;2022-10-15T15:40:46;1.27;;;1.17;;
29550;SDS011;16488;52.396;10.696;2022-10-15T15:43:14;2.53;;;0.73;;
29550;SDS011;16488;52.396;10.696;2022-10-15T15:45:41;1.92;;;0.80;;
29550;SDS011;16488;52.396;10.696;2022-10-15T15:48:06;0.98;;;0.82;;
29550;SDS011;16488;52.396;10.696;2022-10-15T15:50:32;1.13;;;0.80;;
29550;SDS011;16488;52.396;10.696;2022-10-15T15:52:59;2.10;;;0.90;;
29550;SDS011;16488;52.396;10.696;2022-10-15T15:55:25;4.97;;;1.45;;
29550;SDS011;16488;52.396;10.696;2022-10-15T15:57:50;2.88;;;0.80;;
29550;SDS011;16488;52.396;10.696;2022-10-15T16:00:16;0.88;;;0.70;;
29550;SDS011;16488;52.396;10.696;2022-10-15T16:02:42;1.10;;;0.60;;
29550;SDS011;16488;52.396;10.696;2022-10-15T16:05:08;2.72;;;0.55;;
29550;SDS011;16488;52.396;10.696;2022-10-15T16:07:37;1.73;;;1.08;;
29550;SDS011;16488;52.396;10.696;2022-10-15T16:10:03;0.77;;;0.75;;
29550;SDS011;16488;52.396;10.696;2022-10-15T16:12:32;0.85;;;0.60;;
29550;SDS011;16488;52.396;10.696;2022-10-15T16:14:58;1.50;;;0.88;;
29550;SDS011;16488;52.396;10.696;2022-10-15T16:17:24;1.27;;;0.80;;
29550;SDS011;16488;52.396;10.696;2022-10-15T16:19:50;5.00;;;0.70;;
29550;SDS011;16488;52.396;10.696;2022-10-15T16:22:15;3.35;;;0.70;;
29550;SDS011;16488;52.396;10.696;2022-10-15T16:24:41;1.45;;;0.75;;
29550;SDS011;16488;52.396;10.696;2022-10-15T16:27:07;4.72;;;0.60;;
29550;SDS011;16488;52.396;10.696;2022-10-15T16:29:32;1.05;;;0.60;;
29550;SDS011;16488;52.396;10.696;2022-10-15T16:31:58;1.98;;;0.57;;
29550;SDS011;16488;52.396;10.696;2022-10-15T16:34:24;1.63;;;0.80;;
29550;SDS011;16488;52.396;10.696;2022-10-15T16:36:49;1.25;;;0.73;;
29550;SDS011;16488;52.396;10.696;2022-10-15T16:39:15;2.40;;;0.90;;
29550;SDS011;16488;52.396;10.696;2022-10-15T16:41:41;1.08;;;0.80;;
29550;SDS011;16488;52.396;10.696;2022-10-15T16:44:06;2.57;;;1.13;;